createdAt,value
2022-11-15T04:58:42.766Z,100849.25
2022-11-15T05:02:03.541Z,100849.25
2022-11-15T05:05:25.529Z,100847.97
2022-11-15T05:08:46.037Z,100851.13
2022-11-15T05:12:06.609Z,100861.00
2022-11-15T05:15:27.309Z,100859.88
2022-11-15T05:18:47.708Z,100865.72
2022-11-15T05:22:08.392Z,100870.31
2022-11-15T05:25:29.018Z,100870.31
2022-11-15T05:28:55.513Z,100873.47
2022-11-15T05:32:17.591Z,100868.25
2022-11-15T05:35:43.292Z,100871.94
2022-11-15T05:39:05.499Z,100865.78
2022-11-15T05:42:27.713Z,100873.94
2022-11-15T05:45:48.686Z,100858.97
2022-11-15T05:49:14.067Z,100855.28
2022-11-15T05:52:37.781Z,100851.47
2022-11-15T05:55:58.655Z,100851.38
2022-11-15T05:59:19.990Z,100860.41
2022-11-15T06:02:40.507Z,100861.41
2022-11-15T06:06:01.884Z,100851.75
2022-11-15T06:09:22.500Z,100849.47
2022-11-15T06:12:43.275Z,100839.94
2022-11-15T06:16:03.835Z,100838.34
2022-11-15T06:19:24.547Z,100847.69
2022-11-15T06:22:45.069Z,100847.06
2022-11-15T06:26:05.728Z,100847.28
2022-11-15T06:29:26.665Z,100855.47
2022-11-15T06:32:47.267Z,100846.28
2022-11-15T06:36:14.682Z,100851.59
2022-11-15T06:39:38.249Z,100843.81
2022-11-15T06:43:00.301Z,100855.91
2022-11-15T06:46:20.604Z,100853.81
2022-11-15T06:49:40.828Z,100859.47
2022-11-15T06:53:03.419Z,100853.50
2022-11-15T06:56:24.065Z,100846.81
2022-11-15T06:59:44.737Z,100848.94
2022-11-15T07:03:05.310Z,100844.38
2022-11-15T07:06:26.165Z,100860.75
2022-11-15T07:09:46.934Z,100851.38
2022-11-15T07:13:07.290Z,100842.22
2022-11-15T07:16:27.794Z,100850.81
2022-11-15T07:19:48.239Z,100843.59
2022-11-15T07:23:09.055Z,100838.91
2022-11-15T07:26:29.570Z,100830.59
2022-11-15T07:29:50.741Z,100823.44
2022-11-15T07:33:11.033Z,100833.87
2022-11-15T07:36:31.613Z,100834.88
2022-11-15T07:39:52.369Z,100836.97
2022-11-15T07:43:12.834Z,100836.16
2022-11-15T07:46:33.381Z,100826.87
2022-11-15T07:49:54.045Z,100830.94
2022-11-15T07:53:14.793Z,100825.31
2022-11-15T07:56:35.383Z,100842.22
2022-11-15T07:59:55.828Z,100846.97
2022-11-15T08:03:17.595Z,100830.91
2022-11-15T08:06:38.628Z,100826.59
2022-11-15T08:09:59.697Z,100822.66
2022-11-15T08:13:20.550Z,100824.53
2022-11-15T08:16:41.118Z,100817.34
2022-11-15T08:20:01.451Z,100811.41
2022-11-15T08:23:22.609Z,100809.00
2022-11-15T08:26:43.204Z,100795.59
2022-11-15T08:30:04.151Z,100800.38
2022-11-15T08:33:25.548Z,100794.81
2022-11-15T08:36:46.344Z,100808.97
2022-11-15T08:40:07.796Z,100802.28
2022-11-15T08:43:28.188Z,100803.09
2022-11-15T08:46:49.049Z,100796.13
2022-11-15T08:50:09.762Z,100784.59
2022-11-15T08:53:32.820Z,100777.66
2022-11-15T08:56:53.372Z,100771.75
2022-11-15T09:00:14.644Z,100780.59
2022-11-15T09:03:35.427Z,100781.97
2022-11-15T09:06:55.886Z,100774.19
2022-11-15T09:10:16.764Z,100766.13
2022-11-15T09:13:38.137Z,100765.34
2022-11-15T09:16:59.254Z,100754.63
2022-11-15T09:20:20.044Z,100760.22
2022-11-15T09:23:40.903Z,100756.44
2022-11-15T09:27:01.774Z,100751.94
2022-11-15T09:30:23.293Z,100755.97
2022-11-15T09:33:46.954Z,100747.94
2022-11-15T09:37:07.569Z,100758.06
2022-11-15T09:40:28.627Z,100746.28
2022-11-15T09:44:07.991Z,100742.28
2022-11-15T09:47:53.341Z,100749.25
2022-11-15T09:51:00.315Z,100750.88
2022-11-15T09:57:50.815Z,100745.22
2022-11-15T10:00:54.496Z,100740.97
2022-11-15T10:04:00.071Z,100733.16
2022-11-15T10:07:41.011Z,100729.69
2022-11-15T10:10:47.847Z,100727.56
2022-11-15T10:13:52.537Z,100722.47
2022-11-15T10:17:28.295Z,100714.16
2022-11-15T10:20:37.679Z,100708.78
2022-11-15T10:23:40.316Z,100695.34
2022-11-15T10:26:48.900Z,100695.13
2022-11-15T10:29:51.474Z,100700.22
2022-11-15T10:32:53.509Z,100698.88
2022-11-15T10:36:25.317Z,100691.94
2022-11-15T10:39:28.575Z,100684.41
2022-11-15T10:42:31.222Z,100677.16
2022-11-15T10:45:34.962Z,100675.53
2022-11-15T10:48:37.386Z,100674.22
2022-11-15T10:51:55.965Z,100669.94
2022-11-15T10:55:07.315Z,100670.16
2022-11-15T10:58:31.586Z,100662.09
2022-11-15T11:01:47.939Z,100652.22
2022-11-15T11:04:51.792Z,100650.37
2022-11-15T11:08:06.423Z,100653.53
2022-11-15T11:11:10.364Z,100640.31
2022-11-15T11:14:18.611Z,100636.84
2022-11-15T11:17:57.711Z,100630.88
2022-11-15T11:21:08.450Z,100635.28
2022-11-15T11:24:34.396Z,100628.34
2022-11-15T11:28:10.890Z,100619.25
2022-11-15T11:31:34.066Z,100623.84
2022-11-15T11:35:15.181Z,100615.78
2022-11-15T11:38:34.375Z,100613.03
2022-11-15T11:42:07.836Z,100606.09
2022-11-15T11:45:34.952Z,100623.31
2022-11-15T11:48:45.268Z,100602.63
2022-11-15T11:52:08.886Z,100596.44
2022-11-15T11:55:29.370Z,100594.41
2022-11-15T11:58:46.139Z,100598.16
2022-11-15T12:01:48.831Z,100596.00
2022-11-15T12:04:53.892Z,100585.53
2022-11-15T12:08:05.077Z,100582.56
2022-11-15T12:11:16.740Z,100582.06
2022-11-15T12:15:00.563Z,100570.00
2022-11-15T12:18:02.884Z,100560.13
2022-11-15T12:21:42.847Z,100563.56
2022-11-15T12:25:13.985Z,100552.09
2022-11-15T12:28:33.455Z,100545.66
2022-11-15T12:31:35.928Z,100553.16
2022-11-15T12:34:50.083Z,100549.13
2022-11-15T12:37:57.023Z,100543.41
2022-11-15T12:41:15.494Z,100534.59
2022-11-15T12:44:33.014Z,100538.91
2022-11-15T12:47:35.299Z,100530.56
2022-11-15T12:54:22.765Z,100518.03
2022-11-15T12:57:34.219Z,100511.06
2022-11-15T13:00:39.433Z,100516.66
2022-11-15T13:04:09.706Z,100519.41
2022-11-15T13:07:40.633Z,100519.91
2022-11-15T13:10:43.059Z,100514.81
2022-11-15T13:13:46.016Z,100519.06
2022-11-15T13:16:49.072Z,100529.50
2022-11-15T13:20:07.595Z,100522.28
2022-11-15T13:23:15.702Z,100522.47
2022-11-15T13:26:17.819Z,100512.66
2022-11-15T13:29:21.120Z,100503.56
2022-11-15T13:32:23.290Z,100497.13
2022-11-15T13:35:28.805Z,100493.38
2022-11-15T13:38:34.052Z,100497.87
2022-11-15T13:41:47.928Z,100495.47
2022-11-15T13:44:58.913Z,100492.13
2022-11-15T13:48:04.327Z,100477.37
2022-11-15T13:51:33.563Z,100470.19
2022-11-15T13:54:56.179Z,100471.06
2022-11-15T13:58:01.196Z,100470.75
2022-11-15T14:01:05.759Z,100480.97
2022-11-15T14:04:14.123Z,100470.75
2022-11-15T14:07:21.688Z,100469.94
2022-11-15T14:10:27.030Z,100461.19
2022-11-15T14:13:32.075Z,100467.78
2022-11-15T14:16:37.400Z,100460.53
2022-11-15T14:19:40.778Z,100467.34
2022-11-15T14:22:52.588Z,100456.69
2022-11-15T14:26:00.057Z,100445.19
2022-11-15T14:29:33.409Z,100444.44
2022-11-15T14:32:43.731Z,100439.59
2022-11-15T14:35:46.236Z,100435.56
2022-11-15T14:38:48.760Z,100429.66
2022-11-15T14:41:51.094Z,100422.47
2022-11-15T14:44:53.192Z,100415.00
2022-11-15T14:47:55.485Z,100422.22
2022-11-15T14:50:57.756Z,100424.97
2022-11-15T14:54:00.066Z,100420.94
2022-11-15T14:57:02.089Z,100423.87
2022-11-15T15:00:05.683Z,100414.28
2022-11-15T15:03:14.317Z,100406.75
2022-11-15T15:06:18.316Z,100411.03
2022-11-15T15:09:20.669Z,100409.41
2022-11-15T15:12:24.328Z,100406.22
2022-11-15T15:15:33.043Z,100411.25
2022-11-15T15:18:35.322Z,100403.50
2022-11-15T15:21:38.711Z,100393.81
2022-11-15T15:24:41.003Z,100386.63
2022-11-15T15:27:43.096Z,100393.88
2022-11-15T15:30:45.404Z,100394.09
2022-11-15T15:33:47.529Z,100402.16
2022-11-15T15:36:49.906Z,100402.19
2022-11-15T15:39:57.393Z,100408.38
2022-11-15T15:42:59.996Z,100411.31
2022-11-15T15:46:02.029Z,100406.72
2022-11-15T15:49:04.398Z,100408.09
2022-11-15T15:52:06.420Z,100402.50
2022-11-15T15:55:09.707Z,100400.59
2022-11-15T15:58:11.916Z,100390.13
2022-11-15T16:01:16.387Z,100388.81
2022-11-15T16:04:18.765Z,100396.03
2022-11-15T16:07:26.789Z,100385.34
2022-11-15T16:10:31.792Z,100389.84
2022-11-15T16:13:33.835Z,100385.87
2022-11-15T16:16:37.193Z,100386.44
2022-11-15T16:19:39.216Z,100390.69
2022-11-15T16:22:41.500Z,100386.09
2022-11-15T16:25:49.028Z,100388.25
2022-11-15T16:28:51.675Z,100382.13
2022-11-15T16:31:53.703Z,100383.16
2022-11-15T16:34:56.999Z,100384.59
2022-11-15T16:37:59.083Z,100384.00
2022-11-15T16:41:01.385Z,100369.78
2022-11-15T16:44:03.538Z,100377.00
2022-11-15T16:47:05.884Z,100374.88
2022-11-15T16:50:39.767Z,100364.16
